NCAR-RAP Real-Time Weather Data

Output produced by METARs form (12 May 2021  11:56 UTC)
found at http://weather.rap.ucar.edu/surface/
 
KGLS 121152Z 02011KT 4SM BR BKN006 BKN085 21/19 A3003 RMK AO2 LTG DSNT E-S RAE1053 PRESRR SLP168 P0000 60013 70018 T02110194 10250 20206 53021
KGLS 121052Z 03012G20KT 10SM -RA OVC007 22/19 A2999 RMK AO2 LTG DSNT E-SW RAB01 CIG 005V009 SLP153 P0006 T02170194
KGLS 120952Z AUTO 36019G23KT 10SM BKN006 OVC011 22/21 A2999 RMK AO2 LTG DSNT N-SE RAE43 CIG 004V010 SLP155 P0001 T02220206
KGLS 120902Z AUTO 01014KT 10SM -RA BKN006 BKN012 OVC022 23/21 A2997 RMK AO2 LTG DSNT W-NE CIG 005V010 P0000 T02280211
KGLS 120852Z AUTO 01013G19KT 6SM +RA SCT006 BKN012 OVC023 23/21 A2997 RMK AO2 LTG DSNT N AND NE RAB35 SLP148 P0006 60006 T02330206 53001
KGLS 120850Z AUTO 03008G19KT 010V070 7SM +RA FEW006 BKN012 OVC023 23/21 A2997 RMK AO2 LTG DSNT N AND NE RAB35 P0005
KGLS 120837Z AUTO 06004KT 10SM -RA BKN023 BKN031 OVC046 24/22 A2996 RMK AO2 LTG DSNT NW-NE RAB35 P0000 T02440217
KGLS 120752Z AUTO 08009KT 10SM FEW015 OVC035 24/21 A2995 RMK AO2 SLP143 T02440211
KGLS 120652Z AUTO 06010KT 10SM SCT016 SCT045 24/21 A2995 RMK AO2 LTG DSNT SW SLP143 T02440211
KGLS 120603Z AUTO 10012KT 10SM SCT011 24/21 A2997 RMK AO2 LTG DSNT SE AND S T02390211
KGLS 120552Z AUTO 08010KT 10SM BKN011 24/21 A2997 RMK AO2 LTG DSNT SE AND S SLP147 60005 T02390211 10272 20228 403000228 50003
KGLS 120522Z AUTO 10013KT 10SM BKN011 24/21 A2997 RMK AO2 LTG DSNT SE AND S T02390211
KGLS 120452Z AUTO 05010KT 10SM CLR 23/21 A2997 RMK AO2 LTG DSNT E-S RAE01 TSE0356 SLP149 P0000 T02330206
KGLS 120433Z AUTO 06008KT 10SM SCT010 23/21 A2997 RMK AO2 LTG DSNT E-S RAE01 TSE0356 P0000 T02330211
KGLS 120420Z AUTO 05010KT 10SM BKN010 23/21 A2997 RMK AO2 LTG DSNT E-S RAE01 TSE0356 P0000 T02330211
KGLS 120406Z AUTO 03012KT 10SM VCTS FEW008 SCT012 23/21 A2998 RMK AO2 LTG DSNT E-SW RAE01 TSE0356 P0000 T02330211
KGLS 120356Z AUTO 04010KT 10SM VCTS -RA SCT008 BKN012 23/21 A2999 RMK AO2 LTG DSNT E-SW TSE56 P0000 T02280206
KGLS 120352Z AUTO 02012KT 10SM -TSRA BKN008 23/21 A2999 RMK AO2 LTG DSNT E-SW RAE0258B46 TSE12B41 CIG 007V012 SLP153 P0000 T02330211
KGLS 120344Z AUTO 02011KT 10SM TS SCT008 SCT120 23/21 A2998 RMK AO2 LTG DSNT E-SW RAE0258 TSE12B41 P0000 T02330211
KGLS 120336Z AUTO 03010KT 10SM VCTS SCT010 23/21 A2998 RMK AO2 LTG DSNT E-SW RAE0258 TSE12 P0000 T02330211
KGLS 120322Z AUTO 03012KT 10SM BKN011 24/22 A2997 RMK AO2 LTG DSNT NE AND E AND SW RAE0258 TSE12 CIG 007V013 P0000 T02390217
KGLS 120312Z AUTO 02013KT 10SM VCTS BKN011 BKN055 24/22 A2997 RMK AO2 LTG DSNT ALQDS RAE0258 TSE12 P0000 T02390217
KGLS 120252Z AUTO 02011KT 10SM -TSRA FEW007 BKN049 OVC070 23/22 A2996 RMK AO2 PK WND 32026/0201 LTG DSNT NE AND E RAB27 TSB46 SLP144 P0005 60005 T02330217 53023
KGLS 120242Z AUTO 35012KT 5SM VCTS +RA BR FEW007 SCT031 OVC038 23/21 A2995 RMK AO2 PK WND 32026/0201 LTG DSNT NE AND W RAB27 P0004 T02330211
KGLS 120235Z AUTO 34013KT 10SM VCTS -RA FEW008 BKN027 OVC035 24/21 A2995 RMK AO2 PK WND 32026/0201 LTG DSNT NE AND SW AND W RAB27 P0000 T02390211
KGLS 120227Z AUTO 35010KT 10SM VCTS -RA FEW017 BKN030 OVC035 24/21 A2995 RMK AO2 PK WND 32026/0201 LTG DSNT NE AND SW AND W RAB27 P0000 T02390211
KGLS 120214Z AUTO 35016KT 10SM FEW009 BKN020 OVC025 24/21 A2994 RMK AO2 PK WND 32026/0201 LTG DSNT NE T02390206
KGLS 120202Z AUTO 33021G26KT 10SM FEW010 BKN014 BKN042 24/21 A2994 RMK AO2 PK WND 32026/0201 LTG DSNT NW-NE T02390206
KGLS 120152Z AUTO 10SM SCT010 BKN042 BKN075 27/24 A2993 RMK AO2 LTG DSNT NW-NE PRESRR SLP135 T02670239
KGLS 120144Z AUTO 18003KT 10SM FEW010 SCT023 BKN075 27/24 A2992 RMK AO2 LTG DSNT N AND NE T02670244
KGLS 120104Z AUTO 16005KT 10SM FEW009 BKN017 OVC021 27/24 A2989 RMK AO2 LTG DSNT N T02720244
KGLS 120052Z AUTO 17006KT 10SM SCT011 BKN021 OVC030 27/24 A2990 RMK AO2 LTG DSNT N SLP123 T02670239
KGLS 120027Z AUTO 14008KT 10SM FEW009 BKN033 OVC070 27/24 A2990 RMK AO2 T02720239
KGLS 120017Z AUTO 14009KT 10SM FEW009 BKN029 OVC070 27/24 A2990 RMK AO2 T02720239
KGLS 120000Z AUTO 14011KT 10SM FEW019 BKN027 OVC044 27/24 A2989 RMK AO2 T02720239
KGLS 112352Z AUTO 14012KT 6SM HZ FEW010 SCT027 OVC042 27/24 A2989 RMK AO2 SLP121 T02720239 10300 20272 53001
KGLS 112342Z AUTO 13011KT 6SM HZ FEW015 SCT024 OVC043 27/24 A2989 RMK AO2 T02720239
KGLS 112316Z AUTO 13010KT 6SM HZ FEW008 BKN016 OVC041 27/24 A2990 RMK AO2 T02720239
KGLS 112252Z AUTO 13008KT 6SM HZ SCT010 BKN021 OVC039 28/24 A2989 RMK AO2 SLP122 T02780239
KGLS 112159Z 13012KT 7SM SCT007 OVC019 28/24 A2988 RMK AO2 T02780239
KGLS 112152Z 13012KT 10SM SCT008 BKN013 OVC020 28/24 A2988 RMK AO2 SLP117 T02780239
KGLS 112139Z 14014KT 10SM SCT008 BKN013 OVC020 28/24 A2988 RMK AO2 T02830239